Terminal Aerodrome Forecast
Issued by NWS

Home | Current Version | Previous Version | Text Only | Print | Product List | Glossary On
Versions: 1 2 3 4 5 6 7 8 9 10 11 12 13 14 15 16 17 18 19 20 21 22 23
000
FTUS44 KFWD 290300 AAA
TAFFTW
TAF AMD
KFTW 290300Z 2903/2924 19016KT P6SM SKC
     FM291200 18013KT P6SM SCT020
     FM291800 20020KT P6SM FEW030=

USA.gov is the U.S. government's official web portal to all federal, state and local government web resources and services.